createdAt,value
2023-04-27T03:58:20.850Z,32.00
2023-04-27T03:59:20.818Z,36.00
2023-04-27T04:00:20.783Z,44.00
2023-04-27T04:01:20.793Z,48.00
2023-04-27T04:02:20.856Z,52.00
2023-04-27T04:03:20.970Z,56.00
2023-04-27T04:04:20.924Z,64.00
2023-04-27T04:05:20.777Z,68.00
2023-04-27T04:06:20.784Z,76.00
2023-04-27T04:07:20.728Z,84.00
2023-04-27T04:08:20.746Z,92.00
2023-04-27T04:09:22.714Z,96.00
2023-04-27T04:10:20.731Z,104.00
2023-04-27T04:11:20.704Z,116.00
2023-04-27T04:12:20.703Z,124.00
2023-04-27T04:13:20.714Z,132.00
2023-04-27T04:14:20.712Z,144.00
2023-04-27T04:15:20.692Z,148.00
2023-04-27T04:16:20.734Z,160.00
2023-04-27T04:17:21.104Z,172.00
2023-04-27T04:18:20.729Z,184.00
2023-04-27T04:19:22.114Z,192.00
2023-04-27T04:20:20.681Z,204.00
2023-04-27T04:21:20.669Z,212.00
2023-04-27T04:22:20.677Z,224.00
2023-04-27T04:23:20.680Z,232.00
2023-04-27T04:24:20.654Z,248.00
2023-04-27T04:25:20.683Z,256.00
2023-04-27T04:26:20.661Z,272.00
2023-04-27T04:27:20.658Z,280.00
2023-04-27T04:28:20.642Z,292.00
2023-04-27T04:29:20.616Z,304.00
2023-04-27T04:30:20.674Z,312.00
2023-04-27T04:31:20.686Z,328.00
2023-04-27T04:32:20.630Z,336.00
2023-04-27T04:33:20.615Z,348.00
2023-04-27T04:34:20.672Z,360.00
2023-04-27T04:35:20.657Z,372.00
2023-04-27T04:36:20.600Z,380.00
2023-04-27T04:37:20.637Z,392.00
2023-04-27T04:38:20.588Z,404.00
2023-04-27T04:39:20.583Z,416.00
2023-04-27T04:40:20.575Z,424.00
2023-04-27T04:41:20.592Z,436.00
2023-04-27T04:42:20.567Z,448.00
2023-04-27T04:43:20.582Z,464.00
2023-04-27T04:44:20.580Z,476.00
2023-04-27T04:45:20.579Z,488.00
2023-04-27T04:46:20.620Z,500.00
2023-04-27T04:47:20.595Z,520.00
2023-04-27T04:48:20.552Z,548.00
2023-04-27T04:49:20.552Z,564.00
2023-04-27T04:50:20.564Z,596.00
2023-04-27T04:51:20.527Z,640.00
2023-04-27T04:52:20.553Z,664.00
2023-04-27T04:53:20.538Z,700.00
2023-04-27T04:54:20.576Z,724.00
2023-04-27T04:55:20.519Z,744.00
2023-04-27T04:56:20.514Z,744.00
2023-04-27T04:57:20.546Z,752.00
2023-04-27T04:58:20.495Z,772.00
2023-04-27T04:59:20.501Z,748.00
2023-04-27T05:00:20.515Z,744.00
2023-04-27T05:01:20.544Z,756.00
2023-04-27T05:02:20.574Z,760.00
2023-04-27T05:03:20.659Z,776.00
2023-04-27T05:04:20.865Z,792.00
2023-04-27T05:05:20.489Z,812.00
2023-04-27T05:06:20.482Z,836.00
2023-04-27T05:07:24.658Z,860.00
2023-04-27T05:08:20.521Z,928.00
2023-04-27T05:09:20.476Z,940.00
2023-04-27T05:10:20.449Z,944.00
2023-04-27T05:11:20.489Z,980.00
2023-04-27T05:12:20.456Z,976.00
2023-04-27T05:13:20.457Z,988.00
2023-04-27T05:14:20.438Z,1016.00
2023-04-27T05:15:20.447Z,1064.00
2023-04-27T05:16:20.516Z,1068.00
2023-04-27T05:17:20.459Z,1004.00
2023-04-27T05:18:20.459Z,1024.00
2023-04-27T05:19:20.432Z,1076.00
2023-04-27T05:20:20.818Z,1076.00
2023-04-27T05:21:20.440Z,1056.00
2023-04-27T05:22:20.411Z,1052.00
2023-04-27T05:23:20.428Z,1056.00
2023-04-27T05:24:20.402Z,1092.00
2023-04-27T05:25:20.386Z,1128.00
2023-04-27T05:26:20.403Z,1148.00
2023-04-27T05:27:20.375Z,1188.00
2023-04-27T05:28:20.379Z,1192.00
2023-04-27T05:29:20.383Z,1192.00
2023-04-27T05:30:20.391Z,1332.00
2023-04-27T05:31:20.428Z,1392.00
2023-04-27T05:32:20.384Z,1332.00
2023-04-27T05:33:20.360Z,1372.00
2023-04-27T05:34:20.376Z,1428.00
2023-04-27T05:35:20.348Z,1408.00
2023-04-27T05:36:20.336Z,1356.00
2023-04-27T05:37:20.367Z,1352.00
2023-04-27T05:38:20.380Z,1384.00
2023-04-27T05:39:20.383Z,1428.00
2023-04-27T05:40:20.376Z,1448.00
2023-04-27T05:41:20.376Z,1508.00
2023-04-27T05:42:20.376Z,1584.00
2023-04-27T05:43:20.340Z,1640.00
2023-04-27T05:44:20.350Z,1664.00
2023-04-27T05:45:20.354Z,1768.00
2023-04-27T05:46:20.419Z,1984.00
2023-04-27T05:47:20.310Z,2200.00
2023-04-27T05:48:20.355Z,2376.00
2023-04-27T05:49:20.293Z,2520.00
2023-04-27T05:50:20.338Z,2616.00
2023-04-27T05:51:20.295Z,2724.00
2023-04-27T05:52:20.321Z,2820.00
2023-04-27T05:53:20.290Z,2864.00
2023-04-27T05:54:20.314Z,2896.00
2023-04-27T05:55:20.332Z,2928.00
2023-04-27T05:56:20.319Z,2964.00
2023-04-27T05:57:20.413Z,3000.00
2023-04-27T05:58:20.316Z,3024.00
2023-04-27T05:59:20.289Z,3044.00
2023-04-27T06:00:20.302Z,3068.00
2023-04-27T06:01:20.268Z,3088.00
2023-04-27T06:02:20.491Z,3112.00
2023-04-27T06:03:20.537Z,3144.00
2023-04-27T06:04:20.597Z,3168.00
2023-04-27T06:05:20.261Z,3192.00
2023-04-27T06:06:20.244Z,3208.00
2023-04-27T06:07:20.270Z,3232.00
2023-04-27T06:08:20.247Z,3268.00
2023-04-27T06:09:20.223Z,3288.00
2023-04-27T06:10:20.229Z,3312.00
2023-04-27T06:11:20.208Z,3344.00
2023-04-27T06:12:20.213Z,3372.00
2023-04-27T06:13:20.276Z,3396.00
2023-04-27T06:14:20.216Z,3428.00
2023-04-27T06:15:20.206Z,3468.00
2023-04-27T06:16:20.289Z,3504.00
2023-04-27T06:17:20.219Z,3532.00
2023-04-27T06:18:20.238Z,3564.00
2023-04-27T06:19:20.253Z,3592.00
2023-04-27T06:20:20.211Z,3616.00
2023-04-27T06:21:20.198Z,3652.00
2023-04-27T06:22:20.199Z,3680.00
2023-04-27T06:23:20.699Z,3708.00
2023-04-27T06:24:20.196Z,3740.00
2023-04-27T06:25:20.248Z,3772.00
2023-04-27T06:28:52.881Z,3880.00
2023-04-27T06:29:52.737Z,3912.00
2023-04-27T06:30:52.761Z,3932.00
2023-04-27T06:31:52.812Z,3964.00
2023-04-27T06:32:52.806Z,4000.00
2023-04-27T06:33:52.755Z,4032.00
2023-04-27T06:34:52.741Z,4064.00
2023-04-27T06:35:52.774Z,4084.00
2023-04-27T06:36:52.729Z,4108.00
2023-04-27T06:37:52.827Z,4132.00
2023-04-27T06:38:52.730Z,4160.00
2023-04-27T06:39:52.717Z,4180.00
2023-04-27T06:40:52.866Z,4204.00
2023-04-27T06:41:52.760Z,4236.00
2023-04-27T06:42:52.728Z,4268.00
2023-04-27T06:43:52.794Z,4288.00
2023-04-27T06:44:52.788Z,4304.00
2023-04-27T06:45:52.770Z,4324.00
2023-04-27T06:46:52.723Z,4344.00
2023-04-27T06:47:52.716Z,4360.00
2023-04-27T06:48:52.722Z,4380.00
2023-04-27T06:49:52.727Z,4400.00
2023-04-27T06:50:52.774Z,4404.00
2023-04-27T06:51:52.694Z,4412.00
2023-04-27T06:52:52.712Z,4420.00
2023-04-27T06:53:54.871Z,4432.00
2023-04-27T06:54:52.688Z,4452.00
2023-04-27T06:55:52.762Z,4464.00
2023-04-27T06:56:52.676Z,4476.00
2023-04-27T06:57:52.675Z,4488.00
2023-04-27T06:58:52.740Z,4492.00
2023-04-27T07:00:52.717Z,4512.00
2023-04-27T07:01:52.775Z,4528.00
2023-04-27T07:02:52.854Z,4548.00
2023-04-27T07:03:52.909Z,4516.00
2023-04-27T07:04:52.830Z,4532.00
2023-04-27T07:05:53.092Z,4556.00
2023-04-27T07:06:52.715Z,4548.00
2023-04-27T07:07:52.685Z,4560.00
2023-04-27T07:08:52.715Z,4572.00
2023-04-27T07:09:52.694Z,4568.00
2023-04-27T07:10:52.665Z,4560.00
2023-04-27T07:11:52.712Z,4560.00
2023-04-27T07:12:52.766Z,4564.00
2023-04-27T07:13:52.682Z,4584.00
2023-04-27T07:14:52.676Z,4592.00
2023-04-27T07:15:52.670Z,4592.00
2023-04-27T07:16:53.390Z,4588.00
2023-04-27T07:17:52.727Z,4600.00
2023-04-27T07:18:52.723Z,4608.00
2023-04-27T07:19:52.786Z,4596.00
2023-04-27T07:20:52.693Z,4588.00
2023-04-27T07:21:52.671Z,4600.00
2023-04-27T07:22:52.672Z,4608.00
2023-04-27T07:23:54.173Z,4584.00
2023-04-27T07:24:52.624Z,4576.00
2023-04-27T07:25:52.665Z,4580.00
2023-04-27T07:26:52.689Z,4596.00
2023-04-27T07:27:53.036Z,4624.00
2023-04-27T07:28:52.653Z,4656.00
2023-04-27T07:29:52.649Z,4672.00
2023-04-27T07:30:52.639Z,4680.00
2023-04-27T07:31:52.966Z,4700.00
2023-04-27T07:32:52.752Z,4728.00
2023-04-27T07:33:52.688Z,4720.00
2023-04-27T07:34:54.332Z,4704.00
2023-04-27T07:35:52.911Z,4668.00
2023-04-27T07:36:52.620Z,4668.00
2023-04-27T07:37:52.693Z,4668.00
2023-04-27T07:38:52.633Z,4648.00
2023-04-27T07:39:52.772Z,4616.00
2023-04-27T07:40:53.641Z,4680.00
2023-04-27T07:41:52.707Z,4680.00
2023-04-27T07:42:52.778Z,4640.00
2023-04-27T07:43:52.631Z,4672.00
2023-04-27T07:44:52.758Z,4692.00
2023-04-27T07:45:53.462Z,4684.00
2023-04-27T07:46:52.614Z,4664.00
2023-04-27T07:47:52.676Z,4664.00
2023-04-27T07:48:52.627Z,4684.00
2023-04-27T07:49:52.627Z,4688.00
2023-04-27T07:50:52.758Z,4708.00
2023-04-27T07:51:52.663Z,4736.00
2023-04-27T07:52:52.622Z,4764.00
2023-04-27T07:53:52.625Z,4736.00
2023-04-27T07:54:52.689Z,4708.00
2023-04-27T07:55:52.647Z,4716.00
2023-04-27T07:56:52.610Z,4720.00
2023-04-27T07:57:52.637Z,4752.00
2023-04-27T07:58:52.668Z,4728.00
2023-04-27T07:59:52.696Z,4708.00
2023-04-27T08:00:52.961Z,4676.00
2023-04-27T08:01:54.389Z,4640.00
2023-04-27T08:02:52.908Z,4592.00
2023-04-27T08:03:52.856Z,4560.00
2023-04-27T08:04:53.107Z,4532.00
2023-04-27T08:05:53.001Z,4520.00
2023-04-27T08:06:53.130Z,4504.00
2023-04-27T08:07:53.155Z,4480.00
2023-04-27T08:08:52.613Z,4488.00
2023-04-27T08:09:52.606Z,4480.00
2023-04-27T08:10:52.601Z,4472.00
2023-04-27T08:11:52.609Z,4496.00
2023-04-27T08:12:52.587Z,4480.00
2023-04-27T08:13:52.634Z,4456.00
2023-04-27T08:14:52.602Z,4428.00
2023-04-27T08:15:52.599Z,4408.00
2023-04-27T08:16:52.597Z,4372.00
2023-04-27T08:17:52.814Z,4360.00
2023-04-27T08:18:52.627Z,4372.00
2023-04-27T08:19:52.631Z,4340.00
2023-04-27T08:20:52.575Z,4360.00
2023-04-27T08:21:52.592Z,4080.00
2023-04-27T08:22:52.614Z,3160.00
2023-04-27T08:23:52.586Z,4444.00
2023-04-27T08:24:52.604Z,4456.00
2023-04-27T08:25:52.628Z,4440.00
2023-04-27T08:26:52.588Z,4436.00
2023-04-27T08:27:52.648Z,4396.00
2023-04-27T08:28:52.595Z,4356.00
2023-04-27T08:29:52.603Z,4288.00
2023-04-27T08:30:52.651Z,3824.00
2023-04-27T08:31:54.983Z,4248.00
2023-04-27T08:32:52.796Z,3324.00
2023-04-27T08:33:52.590Z,3808.00
2023-04-27T08:34:52.609Z,4364.00
2023-04-27T08:35:52.631Z,4432.00
2023-04-27T08:36:52.636Z,4508.00
2023-04-27T08:37:52.656Z,4516.00
2023-04-27T08:38:52.638Z,4532.00
2023-04-27T08:39:52.589Z,4504.00
2023-04-27T08:40:52.562Z,4432.00
2023-04-27T08:41:52.606Z,4356.00
2023-04-27T08:42:52.566Z,4304.00
2023-04-27T08:43:52.590Z,4256.00
2023-04-27T08:44:52.582Z,4216.00
2023-04-27T08:45:52.760Z,4196.00
2023-04-27T08:46:52.651Z,4148.00
2023-04-27T08:47:52.621Z,4104.00
2023-04-27T08:48:52.638Z,4060.00
2023-04-27T08:49:52.645Z,4000.00
2023-04-27T08:50:52.607Z,3992.00
2023-04-27T08:51:52.583Z,4016.00
2023-04-27T08:52:52.670Z,4136.00
2023-04-27T08:53:52.573Z,3552.00
2023-04-27T08:54:52.693Z,4044.00
2023-04-27T08:55:52.599Z,3548.00
2023-04-27T08:56:52.631Z,2836.00
2023-04-27T08:57:52.565Z,4076.00
2023-04-27T08:58:52.595Z,4044.00
2023-04-27T08:59:52.598Z,4024.00
2023-04-27T09:00:52.723Z,3988.00
2023-04-27T09:01:52.652Z,3932.00
2023-04-27T09:02:52.869Z,3864.00
2023-04-27T09:03:52.745Z,3832.00
2023-04-27T09:04:52.658Z,3852.00
2023-04-27T09:06:03.883Z,3868.00
2023-04-27T09:10:50.071Z,3968.00
2023-04-27T09:11:50.100Z,4020.00
2023-04-27T09:12:50.318Z,4072.00
2023-04-27T09:13:50.065Z,4040.00
2023-04-27T09:14:50.039Z,3972.00
2023-04-27T09:15:50.252Z,3936.00
2023-04-27T09:16:50.156Z,3944.00
2023-04-27T09:17:50.091Z,3972.00
2023-04-27T09:18:50.057Z,3964.00
2023-04-27T09:19:50.124Z,4000.00
2023-04-27T09:20:50.043Z,4124.00
2023-04-27T09:21:50.198Z,4256.00
2023-04-27T09:22:50.218Z,4348.00
2023-04-27T09:23:50.031Z,4376.00
2023-04-27T09:24:50.056Z,4392.00
2023-04-27T09:25:50.053Z,4392.00
2023-04-27T09:26:50.104Z,4376.00
2023-04-27T09:27:50.181Z,4364.00
2023-04-27T09:28:50.180Z,4300.00
2023-04-27T09:29:50.096Z,4200.00
2023-04-27T09:30:50.075Z,4088.00
2023-04-27T09:31:50.222Z,4084.00
2023-04-27T09:32:50.077Z,4088.00
2023-04-27T09:33:50.171Z,4096.00
2023-04-27T09:34:50.108Z,4112.00
2023-04-27T09:35:50.071Z,4116.00
2023-04-27T09:36:50.122Z,4116.00
2023-04-27T09:37:50.043Z,4156.00
2023-04-27T09:38:50.046Z,4180.00
2023-04-27T09:39:50.175Z,4228.00
2023-04-27T09:40:50.315Z,4204.00
2023-04-27T09:41:50.058Z,4156.00
2023-04-27T09:42:50.044Z,4088.00
2023-04-27T09:43:50.079Z,4116.00
2023-04-27T09:44:50.146Z,3776.00
2023-04-27T09:45:50.272Z,4080.00
2023-04-27T09:46:50.073Z,4200.00
2023-04-27T09:47:50.116Z,4232.00
2023-04-27T09:48:50.101Z,4304.00
2023-04-27T09:49:50.202Z,4360.00
2023-04-27T09:50:50.158Z,4428.00
2023-04-27T09:51:50.054Z,4348.00
2023-04-27T09:52:50.076Z,4648.00
2023-04-27T09:53:50.233Z,4692.00
2023-04-27T09:54:50.052Z,4572.00
2023-04-27T09:55:51.630Z,4480.00
2023-04-27T09:56:50.084Z,4456.00
2023-04-27T09:57:50.104Z,4452.00
2023-04-27T09:58:50.504Z,4400.00
2023-04-27T09:59:50.161Z,4324.00
2023-04-27T10:00:50.148Z,4248.00
2023-04-27T10:12:46.703Z,4524.00
2023-04-27T10:13:46.757Z,4004.00
2023-04-27T10:14:46.708Z,4280.00
2023-04-27T10:15:49.236Z,4632.00
2023-04-27T10:16:46.911Z,4728.00
2023-04-27T10:17:46.766Z,4748.00
2023-04-27T10:18:46.798Z,4448.00
2023-04-27T10:19:46.685Z,4484.00
2023-04-27T10:20:46.691Z,4420.00
2023-04-27T10:21:47.249Z,4408.00
2023-04-27T10:22:46.716Z,4340.00
2023-04-27T10:23:46.714Z,4292.00
2023-04-27T10:24:46.704Z,4268.00
2023-04-27T10:25:46.665Z,4320.00
2023-04-27T10:26:46.659Z,4448.00
2023-04-27T10:27:46.654Z,4588.00
2023-04-27T10:28:46.696Z,4280.00
2023-04-27T10:29:47.409Z,3728.00
2023-04-27T10:30:46.901Z,4104.00
2023-04-27T10:31:46.743Z,3324.00
2023-04-27T10:32:46.814Z,3292.00
2023-04-27T10:33:46.760Z,3204.00
2023-04-27T10:34:46.707Z,3152.00
2023-04-27T10:35:46.705Z,3360.00
2023-04-27T10:36:46.704Z,4204.00
2023-04-27T10:37:46.694Z,3352.00
2023-04-27T10:38:46.747Z,3120.00
2023-04-27T10:39:49.202Z,3272.00
2023-04-27T10:40:46.708Z,3352.00
2023-04-27T10:41:46.702Z,3260.00
2023-04-27T10:42:46.737Z,3104.00
2023-04-27T10:43:46.693Z,3132.00
2023-04-27T10:44:46.694Z,3016.00
2023-04-27T10:46:46.771Z,3068.00
2023-04-27T10:47:46.718Z,3600.00
2023-04-27T10:48:46.702Z,4316.00
2023-04-27T10:49:46.699Z,4496.00
2023-04-27T10:50:46.732Z,4500.00
2023-04-27T10:51:46.717Z,4536.00
2023-04-27T10:52:46.756Z,4568.00
2023-04-27T10:53:46.761Z,4572.00
2023-04-27T10:54:46.707Z,4540.00
2023-04-27T10:55:46.789Z,4528.00
2023-04-27T10:56:46.758Z,4268.00
2023-04-27T10:57:46.748Z,3072.00
2023-04-27T10:58:49.232Z,3064.00
2023-04-27T10:59:46.698Z,3204.00
2023-04-27T11:00:46.735Z,4776.00
2023-04-27T11:01:46.795Z,4788.00
2023-04-27T11:02:46.805Z,4736.00
2023-04-27T11:03:46.998Z,4756.00
2023-04-27T11:04:46.808Z,4704.00
2023-04-27T11:05:46.739Z,4776.00
2023-04-27T11:06:47.060Z,4784.00
2023-04-27T11:07:46.774Z,4816.00
2023-04-27T11:08:46.738Z,4788.00
2023-04-27T11:09:46.839Z,4696.00
2023-04-27T11:10:46.730Z,4804.00
2023-04-27T11:11:46.840Z,4880.00
2023-04-27T11:12:46.757Z,4960.00
2023-04-27T11:13:47.401Z,4952.00
2023-04-27T11:14:46.803Z,4992.00
2023-04-27T11:15:46.840Z,5000.00
2023-04-27T11:16:47.076Z,4972.00
2023-04-27T11:17:46.838Z,4952.00
2023-04-27T11:18:46.798Z,4948.00
2023-04-27T11:19:46.795Z,4980.00
2023-04-27T11:20:46.796Z,5032.00
2023-04-27T11:21:46.880Z,5012.00
2023-04-27T11:22:46.781Z,5004.00
2023-04-27T11:23:46.745Z,4972.00
2023-04-27T11:24:46.808Z,4944.00
2023-04-27T11:25:46.797Z,4916.00
2023-04-27T11:26:46.828Z,4912.00
2023-04-27T11:27:46.857Z,4960.00
2023-04-27T11:28:46.772Z,4988.00
2023-04-27T11:29:46.991Z,5056.00
2023-04-27T11:30:46.763Z,5092.00
2023-04-27T11:31:46.813Z,5196.00
2023-04-27T11:32:46.868Z,5300.00
2023-04-27T11:33:46.796Z,5472.00
2023-04-27T11:34:46.857Z,5500.00
2023-04-27T11:35:46.783Z,5624.00
2023-04-27T11:36:46.834Z,5676.00
2023-04-27T11:37:46.788Z,5760.00
2023-04-27T11:38:46.902Z,5784.00
2023-04-27T11:39:46.945Z,5880.00
2023-04-27T11:40:46.850Z,5944.00
2023-04-27T11:41:46.829Z,6052.00
2023-04-27T11:42:46.804Z,6128.00
2023-04-27T11:43:46.842Z,6184.00
2023-04-27T11:44:46.818Z,6224.00
2023-04-27T11:45:46.862Z,6268.00
2023-04-27T11:46:46.883Z,6356.00
2023-04-27T11:47:46.861Z,6504.00
2023-04-27T11:48:47.103Z,6512.00
2023-04-27T11:49:46.820Z,6688.00
2023-04-27T11:50:46.885Z,6516.00
2023-04-27T11:51:46.922Z,6980.00
2023-04-27T11:52:46.851Z,7040.00
2023-04-27T11:53:46.832Z,5620.00
2023-04-27T11:54:46.857Z,4176.00
2023-04-27T11:55:46.892Z,3912.00
2023-04-27T11:56:46.844Z,4748.00
2023-04-27T11:57:46.973Z,7620.00
2023-04-27T11:58:46.856Z,7712.00
2023-04-27T11:59:47.560Z,7640.00
2023-04-27T12:00:47.074Z,7652.00
2023-04-27T12:01:46.955Z,7648.00
2023-04-27T12:02:47.004Z,7656.00
2023-04-27T12:03:47.185Z,7756.00
2023-04-27T12:04:48.005Z,8040.00
2023-04-27T12:05:46.952Z,8176.00
2023-04-27T12:06:46.955Z,8248.00
2023-04-27T12:07:46.942Z,8148.00
2023-04-27T12:08:47.080Z,8344.00
2023-04-27T12:09:46.970Z,8576.00
2023-04-27T12:10:47.168Z,8840.00
2023-04-27T12:11:47.032Z,9100.00
2023-04-27T12:12:46.960Z,9296.00
2023-04-27T12:13:46.949Z,9272.00
2023-04-27T12:14:46.966Z,8880.00
2023-04-27T12:15:46.980Z,8488.00
2023-04-27T12:16:47.046Z,9176.00
2023-04-27T12:17:47.000Z,9248.00
2023-04-27T12:18:47.069Z,9252.00
2023-04-27T12:19:47.054Z,9348.00
2023-04-27T12:20:47.012Z,9616.00
2023-04-27T12:21:46.977Z,9964.00
2023-04-27T12:23:46.982Z,10212.00
2023-04-27T12:24:46.984Z,9992.00
2023-04-27T12:25:46.985Z,9936.00
2023-04-27T12:26:47.005Z,9992.00
2023-04-27T12:27:46.998Z,9916.00
2023-04-27T12:28:47.017Z,9984.00
2023-04-27T12:29:47.136Z,9912.00
2023-04-27T12:30:47.103Z,10012.00
2023-04-27T12:31:47.058Z,10084.00
2023-04-27T12:32:47.065Z,10268.00
2023-04-27T12:33:47.030Z,10540.00
2023-04-27T12:34:47.133Z,10720.00
2023-04-27T12:35:47.036Z,10844.00
2023-04-27T12:36:47.094Z,11068.00
2023-04-27T12:37:47.052Z,11336.00
2023-04-27T12:38:47.082Z,11488.00
2023-04-27T12:39:47.066Z,11548.00
2023-04-27T12:40:47.068Z,11748.00
2023-04-27T12:41:47.069Z,12152.00
2023-04-27T12:42:47.082Z,12492.00
2023-04-27T12:43:47.088Z,12788.00
2023-04-27T12:44:47.155Z,12908.00
2023-04-27T12:45:47.097Z,13016.00
2023-04-27T12:46:47.184Z,12808.00
2023-04-27T12:48:01.786Z,12732.00
2023-04-27T12:48:47.161Z,12752.00
2023-04-27T12:49:47.142Z,12864.00
2023-04-27T12:50:47.133Z,13084.00
2023-04-27T12:51:47.175Z,13164.00
2023-04-27T12:52:47.151Z,13300.00
2023-04-27T12:53:47.138Z,13360.00
2023-04-27T12:54:47.176Z,13380.00
2023-04-27T12:55:47.160Z,13412.00
2023-04-27T12:56:47.170Z,13872.00
2023-04-27T12:57:47.172Z,14320.00
2023-04-27T12:59:47.241Z,15196.00
2023-04-27T13:00:47.325Z,15640.00
2023-04-27T13:01:47.289Z,15700.00
2023-04-27T13:02:47.348Z,15980.00
2023-04-27T13:03:47.340Z,16076.00
2023-04-27T13:04:47.365Z,15848.00
2023-04-27T13:05:47.256Z,15900.00
2023-04-27T13:06:47.251Z,15980.00
2023-04-27T13:07:47.212Z,16256.00
2023-04-27T13:08:47.278Z,16568.00
2023-04-27T13:09:47.261Z,16552.00
2023-04-27T13:10:47.233Z,16876.00
2023-04-27T13:11:47.275Z,17600.00
2023-04-27T13:12:47.253Z,17612.00
2023-04-27T13:13:47.263Z,17456.00
2023-04-27T13:14:47.254Z,17132.00
2023-04-27T13:15:47.334Z,16164.00
2023-04-27T13:16:47.284Z,17764.00
2023-04-27T13:17:47.291Z,18240.00
2023-04-27T13:18:47.314Z,17684.00
2023-04-27T13:19:47.298Z,17224.00
2023-04-27T13:20:47.346Z,18752.00
2023-04-27T13:24:19.914Z,19872.00
2023-04-27T13:25:19.892Z,19424.00
2023-04-27T13:26:19.926Z,19200.00
2023-04-27T13:27:42.018Z,19552.00
2023-04-27T13:28:19.924Z,20416.00
2023-04-27T13:29:19.918Z,20480.00
2023-04-27T13:30:19.957Z,20640.00
2023-04-27T13:31:19.950Z,20864.00
2023-04-27T13:32:20.118Z,21184.00
2023-04-27T13:33:23.367Z,20960.00
2023-04-27T13:34:19.918Z,20512.00
2023-04-27T13:35:19.949Z,20384.00
2023-04-27T13:36:19.952Z,20320.00
2023-04-27T13:37:19.912Z,19744.00
2023-04-27T13:38:19.970Z,19840.00
2023-04-27T13:39:19.964Z,20096.00
2023-04-27T13:40:19.964Z,19552.00
2023-04-27T13:41:20.006Z,19264.00
2023-04-27T13:42:19.976Z,19680.00
2023-04-27T13:43:19.987Z,19744.00
2023-04-27T13:44:20.114Z,19200.00
2023-04-27T13:45:21.342Z,18464.00
2023-04-27T13:46:20.039Z,18592.00
2023-04-27T13:47:20.020Z,18784.00
2023-04-27T13:48:20.124Z,18272.00
2023-04-27T13:49:19.992Z,19456.00
2023-04-27T13:50:20.212Z,18464.00
2023-04-27T13:51:20.002Z,14868.00
2023-04-27T13:52:19.997Z,9604.00
2023-04-27T13:53:20.018Z,9788.00
2023-04-27T13:54:20.009Z,19328.00
2023-04-27T13:55:20.018Z,16388.00
2023-04-27T13:56:20.042Z,20640.00
2023-04-27T13:57:20.055Z,20608.00
2023-04-27T13:58:20.051Z,20544.00
2023-04-27T13:59:20.036Z,20256.00
2023-04-27T14:00:20.100Z,20544.00
2023-04-27T14:01:20.116Z,20256.00
2023-04-27T14:02:20.103Z,12916.00
2023-04-27T14:03:20.284Z,18752.00
2023-04-27T14:04:20.262Z,18880.00
2023-04-27T14:05:20.086Z,19296.00
2023-04-27T14:06:20.100Z,18720.00
2023-04-27T14:07:20.083Z,18720.00
2023-04-27T14:08:20.094Z,21536.00
2023-04-27T14:09:20.128Z,28640.00
2023-04-27T14:10:20.155Z,33088.00
2023-04-27T14:11:20.124Z,30272.00
2023-04-27T14:12:20.143Z,28672.00
2023-04-27T14:13:20.146Z,28320.00
2023-04-27T14:14:20.115Z,28672.00
2023-04-27T14:15:20.155Z,25472.00
2023-04-27T14:16:20.163Z,30624.00
2023-04-27T14:17:20.130Z,26944.00
2023-04-27T14:18:20.251Z,22720.00
2023-04-27T14:19:20.147Z,20000.00
2023-04-27T14:20:20.190Z,16600.00
2023-04-27T14:21:20.187Z,16188.00
2023-04-27T14:22:20.176Z,16484.00
2023-04-27T14:23:20.193Z,17420.00
2023-04-27T14:24:20.172Z,19072.00
2023-04-27T14:25:20.178Z,25472.00
2023-04-27T14:26:20.199Z,33280.00
2023-04-27T14:27:20.184Z,42592.00
2023-04-27T14:28:20.218Z,45312.00
2023-04-27T14:29:20.194Z,46016.00
2023-04-27T14:30:20.206Z,42432.00
2023-04-27T14:31:20.275Z,39520.00
2023-04-27T14:32:20.312Z,39296.00
2023-04-27T14:33:20.210Z,41728.00
2023-04-27T14:34:21.673Z,44544.00
2023-04-27T14:35:20.230Z,43392.00
2023-04-27T14:36:20.236Z,45024.00
2023-04-27T14:37:20.242Z,44672.00
2023-04-27T14:38:20.291Z,43808.00
2023-04-27T14:39:20.261Z,44224.00
2023-04-27T14:40:20.258Z,44704.00
2023-04-27T14:41:20.278Z,46272.00
2023-04-27T14:42:20.246Z,43712.00
2023-04-27T14:43:20.284Z,46816.00
2023-04-27T14:44:20.329Z,45856.00
2023-04-27T14:45:20.868Z,45536.00
2023-04-27T14:46:21.392Z,44064.00
2023-04-27T14:47:20.315Z,38144.00
2023-04-27T14:48:20.317Z,12316.00
2023-04-27T14:49:20.303Z,22144.00
2023-04-27T14:50:20.342Z,8832.00
2023-04-27T14:51:20.351Z,7628.00
2023-04-27T14:52:20.337Z,7692.00
2023-04-27T14:53:20.301Z,7640.00
2023-04-27T14:54:20.328Z,7416.00
2023-04-27T14:55:20.322Z,7764.00
2023-04-27T14:56:20.339Z,9312.00
2023-04-27T14:57:20.362Z,14676.00
2023-04-27T14:58:20.350Z,31968.00
2023-04-27T14:59:20.370Z,32960.00
2023-04-27T15:00:20.360Z,39072.00
2023-04-27T15:01:20.390Z,34080.00
2023-04-27T15:02:20.434Z,35552.00
2023-04-27T15:03:20.546Z,31040.00
2023-04-27T15:04:20.426Z,32768.00
2023-04-27T15:05:20.395Z,34432.00
2023-04-27T15:06:20.386Z,38496.00
2023-04-27T15:07:20.369Z,32864.00
2023-04-27T15:08:20.364Z,30048.00
2023-04-27T15:09:20.376Z,22784.00
2023-04-27T15:10:20.405Z,14588.00
2023-04-27T15:11:20.415Z,26560.00
2023-04-27T15:12:20.377Z,23712.00
2023-04-27T15:13:20.378Z,23200.00
2023-04-27T15:14:20.389Z,24000.00
2023-04-27T15:15:20.398Z,25056.00
2023-04-27T15:16:20.563Z,22656.00
2023-04-27T15:17:20.431Z,21952.00
2023-04-27T15:18:21.367Z,16112.00
2023-04-27T15:19:20.411Z,21152.00
2023-04-27T15:20:20.436Z,17748.00
2023-04-27T15:21:20.432Z,16000.00
2023-04-27T15:22:20.413Z,18464.00
2023-04-27T15:23:20.413Z,20064.00
2023-04-27T15:24:20.424Z,20448.00
2023-04-27T15:25:20.451Z,20448.00
2023-04-27T15:26:20.447Z,16664.00
2023-04-27T15:27:20.414Z,16984.00
2023-04-27T15:28:20.420Z,15908.00
2023-04-27T15:29:20.426Z,13960.00
2023-04-27T15:30:20.464Z,14132.00
2023-04-27T15:31:20.485Z,14868.00
2023-04-27T15:32:20.457Z,15304.00
2023-04-27T15:33:21.145Z,14464.00
2023-04-27T15:34:20.437Z,13736.00
2023-04-27T15:35:20.485Z,13780.00
2023-04-27T15:36:20.441Z,13648.00
2023-04-27T15:37:20.441Z,11968.00
2023-04-27T15:38:20.480Z,10344.00
2023-04-27T15:39:20.462Z,8412.00
2023-04-27T15:40:20.487Z,6712.00
2023-04-27T15:41:20.454Z,6204.00
2023-04-27T15:42:20.451Z,5844.00
2023-04-27T15:43:20.460Z,5600.00
2023-04-27T15:44:20.463Z,5428.00
2023-04-27T15:45:20.523Z,5352.00
2023-04-27T15:46:20.492Z,5360.00
2023-04-27T15:47:20.508Z,5372.00
2023-04-27T15:48:20.515Z,5388.00
2023-04-27T15:49:20.469Z,5404.00
2023-04-27T15:50:20.521Z,5324.00
2023-04-27T15:51:20.470Z,5216.00
2023-04-27T15:52:20.469Z,5168.00
2023-04-27T15:53:20.476Z,5120.00
2023-04-27T15:54:20.486Z,5028.00
2023-04-27T15:55:20.510Z,4916.00
2023-04-27T15:56:20.473Z,4816.00
2023-04-27T15:57:20.472Z,4612.00
2023-04-27T15:58:20.506Z,4392.00
2023-04-27T15:59:20.501Z,4288.00
2023-04-27T16:00:20.487Z,4212.00
2023-04-27T16:11:52.744Z,3184.00
2023-04-27T16:12:52.711Z,3096.00
2023-04-27T16:13:52.704Z,3028.00
2023-04-27T16:14:52.694Z,2952.00
2023-04-27T16:15:52.688Z,2864.00
2023-04-27T16:16:52.703Z,2780.00
2023-04-27T16:17:53.234Z,2696.00
2023-04-27T16:18:52.701Z,2616.00
2023-04-27T16:19:52.681Z,2540.00
2023-04-27T16:20:52.673Z,2468.00
2023-04-27T16:21:52.703Z,2396.00
2023-04-27T16:22:52.697Z,2320.00
2023-04-27T16:23:52.664Z,2232.00
2023-04-27T16:24:52.671Z,2160.00
2023-04-27T16:25:52.687Z,2096.00
2023-04-27T16:26:52.688Z,2040.00
2023-04-27T16:27:52.676Z,1988.00
2023-04-27T16:28:52.677Z,1944.00
2023-04-27T16:29:52.663Z,1904.00
2023-04-27T16:30:52.662Z,1868.00
2023-04-27T16:31:52.855Z,1832.00
2023-04-27T16:32:52.698Z,1796.00
2023-04-27T16:33:52.656Z,1744.00
2023-04-27T16:34:52.676Z,1692.00
2023-04-27T16:35:52.663Z,1636.00